sensor_id;sensor_type;location;lat;lon;timestamp;P1;durP1;ratioP1;P2;durP2;ratioP2
42124;SDS011;27787;44.594;11.046;2023-04-01T00:02:15;28.77;;;12.73;;
42124;SDS011;27787;44.594;11.046;2023-04-01T00:04:59;28.75;;;13.75;;
42124;SDS011;27787;44.594;11.046;2023-04-01T00:07:44;19.75;;;10.23;;
42124;SDS011;27787;44.594;11.046;2023-04-01T00:10:30;18.15;;;10.05;;
42124;SDS011;27787;44.594;11.046;2023-04-01T00:13:14;21.17;;;10.68;;
42124;SDS011;27787;44.594;11.046;2023-04-01T00:15:59;19.73;;;12.02;;
42124;SDS011;27787;44.594;11.046;2023-04-01T00:18:45;23.02;;;12.73;;
42124;SDS011;27787;44.594;11.046;2023-04-01T00:21:31;29.00;;;13.23;;
42124;SDS011;27787;44.594;11.046;2023-04-01T00:24:15;24.00;;;12.32;;
42124;SDS011;27787;44.594;11.046;2023-04-01T00:27:00;20.58;;;11.05;;
42124;SDS011;27787;44.594;11.046;2023-04-01T00:29:44;19.30;;;10.95;;
42124;SDS011;27787;44.594;11.046;2023-04-01T00:32:30;23.73;;;12.52;;
42124;SDS011;27787;44.594;11.046;2023-04-01T00:35:15;25.27;;;11.77;;
42124;SDS011;27787;44.594;11.046;2023-04-01T00:37:59;22.15;;;12.50;;
42124;SDS011;27787;44.594;11.046;2023-04-01T00:40:45;24.55;;;12.98;;
42124;SDS011;27787;44.594;11.046;2023-04-01T00:43:30;28.17;;;12.65;;
42124;SDS011;27787;44.594;11.046;2023-04-01T00:46:15;23.75;;;12.52;;
42124;SDS011;27787;44.594;11.046;2023-04-01T00:49:00;23.15;;;11.35;;
42124;SDS011;27787;44.594;11.046;2023-04-01T00:51:46;27.52;;;13.00;;
42124;SDS011;27787;44.594;11.046;2023-04-01T00:54:34;26.27;;;12.95;;
42124;SDS011;27787;44.594;11.046;2023-04-01T00:57:39;23.40;;;12.88;;
42124;SDS011;27787;44.594;11.046;2023-04-01T01:00:26;27.25;;;12.95;;
42124;SDS011;27787;44.594;11.046;2023-04-01T01:03:10;28.90;;;13.00;;
42124;SDS011;27787;44.594;11.046;2023-04-01T01:15:02;32.95;;;13.82;;
42124;SDS011;27787;44.594;11.046;2023-04-01T01:18:02;23.10;;;12.60;;
42124;SDS011;27787;44.594;11.046;2023-04-01T01:36:06;32.53;;;14.82;;
42124;SDS011;27787;44.594;11.046;2023-04-01T01:38:54;28.58;;;15.40;;
42124;SDS011;27787;44.594;11.046;2023-04-01T01:41:41;31.58;;;15.85;;
42124;SDS011;27787;44.594;11.046;2023-04-01T01:44:28;28.25;;;15.82;;
42124;SDS011;27787;44.594;11.046;2023-04-01T01:47:14;27.48;;;15.95;;
42124;SDS011;27787;44.594;11.046;2023-04-01T01:50:02;29.35;;;15.45;;
42124;SDS011;27787;44.594;11.046;2023-04-01T01:52:48;30.02;;;15.55;;
42124;SDS011;27787;44.594;11.046;2023-04-01T01:55:34;26.98;;;15.23;;
42124;SDS011;27787;44.594;11.046;2023-04-01T01:58:22;28.85;;;13.75;;
42124;SDS011;27787;44.594;11.046;2023-04-01T02:01:13;26.70;;;13.63;;
42124;SDS011;27787;44.594;11.046;2023-04-01T02:04:01;28.58;;;14.68;;
42124;SDS011;27787;44.594;11.046;2023-04-01T02:06:51;25.67;;;14.27;;
42124;SDS011;27787;44.594;11.046;2023-04-01T02:09:39;27.90;;;13.43;;
42124;SDS011;27787;44.594;11.046;2023-04-01T02:12:25;26.58;;;13.93;;
42124;SDS011;27787;44.594;11.046;2023-04-01T02:15:12;24.73;;;13.35;;
42124;SDS011;27787;44.594;11.046;2023-04-01T02:17:59;26.15;;;13.63;;
42124;SDS011;27787;44.594;11.046;2023-04-01T02:20:44;23.67;;;12.93;;
42124;SDS011;27787;44.594;11.046;2023-04-01T02:23:29;24.92;;;14.07;;
42124;SDS011;27787;44.594;11.046;2023-04-01T02:29:00;22.52;;;11.48;;
42124;SDS011;27787;44.594;11.046;2023-04-01T02:31:48;21.35;;;11.38;;
42124;SDS011;27787;44.594;11.046;2023-04-01T02:34:34;21.30;;;11.10;;
42124;SDS011;27787;44.594;11.046;2023-04-01T02:37:18;25.98;;;11.85;;
42124;SDS011;27787;44.594;11.046;2023-04-01T02:40:04;27.83;;;12.93;;
42124;SDS011;27787;44.594;11.046;2023-04-01T02:42:51;29.15;;;13.68;;
42124;SDS011;27787;44.594;11.046;2023-04-01T02:45:35;24.20;;;12.77;;
42124;SDS011;27787;44.594;11.046;2023-04-01T02:48:20;22.25;;;13.00;;
42124;SDS011;27787;44.594;11.046;2023-04-01T02:51:05;26.38;;;13.75;;
42124;SDS011;27787;44.594;11.046;2023-04-01T02:53:49;24.98;;;12.63;;
42124;SDS011;27787;44.594;11.046;2023-04-01T02:56:34;28.83;;;13.40;;
42124;SDS011;27787;44.594;11.046;2023-04-01T02:59:18;22.63;;;12.57;;
42124;SDS011;27787;44.594;11.046;2023-04-01T03:02:02;25.55;;;12.07;;
42124;SDS011;27787;44.594;11.046;2023-04-01T03:04:47;23.75;;;13.45;;
42124;SDS011;27787;44.594;11.046;2023-04-01T03:07:31;28.60;;;12.95;;
42124;SDS011;27787;44.594;11.046;2023-04-01T03:10:15;21.08;;;11.85;;
42124;SDS011;27787;44.594;11.046;2023-04-01T03:13:00;24.23;;;12.27;;
42124;SDS011;27787;44.594;11.046;2023-04-01T03:15:44;23.25;;;12.35;;
42124;SDS011;27787;44.594;11.046;2023-04-01T03:18:29;22.02;;;12.77;;
42124;SDS011;27787;44.594;11.046;2023-04-01T03:21:15;20.67;;;12.02;;
42124;SDS011;27787;44.594;11.046;2023-04-01T03:24:01;20.08;;;12.57;;
42124;SDS011;27787;44.594;11.046;2023-04-01T03:26:46;23.75;;;12.00;;
42124;SDS011;27787;44.594;11.046;2023-04-01T03:29:31;25.20;;;12.73;;
42124;SDS011;27787;44.594;11.046;2023-04-01T03:32:15;25.23;;;12.07;;
42124;SDS011;27787;44.594;11.046;2023-04-01T03:35:00;19.00;;;11.40;;
42124;SDS011;27787;44.594;11.046;2023-04-01T03:37:44;26.35;;;11.82;;
42124;SDS011;27787;44.594;11.046;2023-04-01T03:40:29;25.00;;;12.13;;
42124;SDS011;27787;44.594;11.046;2023-04-01T03:43:13;19.95;;;11.10;;
42124;SDS011;27787;44.594;11.046;2023-04-01T03:45:58;30.65;;;12.73;;
42124;SDS011;27787;44.594;11.046;2023-04-01T03:48:42;21.15;;;12.00;;
42124;SDS011;27787;44.594;11.046;2023-04-01T03:51:26;28.13;;;11.65;;
42124;SDS011;27787;44.594;11.046;2023-04-01T03:54:10;21.08;;;11.18;;
42124;SDS011;27787;44.594;11.046;2023-04-01T03:56:55;21.90;;;10.45;;
42124;SDS011;27787;44.594;11.046;2023-04-01T03:59:41;19.73;;;10.52;;
42124;SDS011;27787;44.594;11.046;2023-04-01T04:02:26;19.25;;;11.50;;
42124;SDS011;27787;44.594;11.046;2023-04-01T04:05:11;21.27;;;11.13;;
42124;SDS011;27787;44.594;11.046;2023-04-01T04:07:57;17.50;;;10.98;;
42124;SDS011;27787;44.594;11.046;2023-04-01T04:10:41;23.77;;;11.18;;
42124;SDS011;27787;44.594;11.046;2023-04-01T04:13:26;17.35;;;10.48;;
42124;SDS011;27787;44.594;11.046;2023-04-01T04:16:17;18.23;;;10.07;;
42124;SDS011;27787;44.594;11.046;2023-04-01T04:19:06;19.95;;;9.77;;
42124;SDS011;27787;44.594;11.046;2023-04-01T04:21:51;21.02;;;9.30;;
42124;SDS011;27787;44.594;11.046;2023-04-01T04:24:35;18.67;;;9.18;;
42124;SDS011;27787;44.594;11.046;2023-04-01T04:27:26;20.95;;;10.52;;
42124;SDS011;27787;44.594;11.046;2023-04-01T04:30:19;17.85;;;10.20;;
42124;SDS011;27787;44.594;11.046;2023-04-01T04:33:03;20.63;;;10.15;;
42124;SDS011;27787;44.594;11.046;2023-04-01T04:35:48;17.80;;;9.50;;
42124;SDS011;27787;44.594;11.046;2023-04-01T04:38:33;20.55;;;10.57;;
42124;SDS011;27787;44.594;11.046;2023-04-01T04:41:18;21.92;;;10.13;;
42124;SDS011;27787;44.594;11.046;2023-04-01T04:44:06;21.55;;;9.95;;
42124;SDS011;27787;44.594;11.046;2023-04-01T04:46:51;15.23;;;9.23;;
42124;SDS011;27787;44.594;11.046;2023-04-01T04:49:35;14.40;;;8.95;;
42124;SDS011;27787;44.594;11.046;2023-04-01T04:52:23;17.45;;;9.30;;
42124;SDS011;27787;44.594;11.046;2023-04-01T04:55:08;16.90;;;8.75;;
42124;SDS011;27787;44.594;11.046;2023-04-01T04:57:52;19.40;;;7.57;;
42124;SDS011;27787;44.594;11.046;2023-04-01T05:00:37;18.02;;;8.07;;
42124;SDS011;27787;44.594;11.046;2023-04-01T05:03:24;12.13;;;7.15;;
42124;SDS011;27787;44.594;11.046;2023-04-01T05:06:09;15.00;;;6.85;;
42124;SDS011;27787;44.594;11.046;2023-04-01T05:08:55;13.10;;;6.85;;
42124;SDS011;27787;44.594;11.046;2023-04-01T05:11:40;10.40;;;5.80;;
42124;SDS011;27787;44.594;11.046;2023-04-01T05:14:25;13.43;;;5.53;;
42124;SDS011;27787;44.594;11.046;2023-04-01T05:17:16;9.45;;;5.20;;
42124;SDS011;27787;44.594;11.046;2023-04-01T05:20:01;9.68;;;5.53;;
42124;SDS011;27787;44.594;11.046;2023-04-01T05:22:46;16.08;;;5.50;;
42124;SDS011;27787;44.594;11.046;2023-04-01T05:25:31;8.88;;;5.38;;
42124;SDS011;27787;44.594;11.046;2023-04-01T05:28:15;17.40;;;5.80;;
42124;SDS011;27787;44.594;11.046;2023-04-01T05:31:02;10.75;;;5.25;;
42124;SDS011;27787;44.594;11.046;2023-04-01T05:33:52;10.45;;;5.40;;
42124;SDS011;27787;44.594;11.046;2023-04-01T05:36:38;10.13;;;4.88;;
42124;SDS011;27787;44.594;11.046;2023-04-01T05:39:22;9.00;;;5.20;;
42124;SDS011;27787;44.594;11.046;2023-04-01T05:42:08;11.13;;;6.15;;
42124;SDS011;27787;44.594;11.046;2023-04-01T05:44:52;11.27;;;5.95;;
42124;SDS011;27787;44.594;11.046;2023-04-01T05:48:03;10.07;;;5.40;;
42124;SDS011;27787;44.594;11.046;2023-04-01T05:50:53;15.10;;;5.28;;
42124;SDS011;27787;44.594;11.046;2023-04-01T05:53:38;19.33;;;6.25;;
42124;SDS011;27787;44.594;11.046;2023-04-01T05:56:22;10.55;;;5.70;;
42124;SDS011;27787;44.594;11.046;2023-04-01T05:59:09;16.15;;;7.68;;
42124;SDS011;27787;44.594;11.046;2023-04-01T06:04:39;34.45;;;16.40;;
42124;SDS011;27787;44.594;11.046;2023-04-01T06:07:24;29.95;;;17.13;;
42124;SDS011;27787;44.594;11.046;2023-04-01T06:10:16;32.85;;;16.98;;
42124;SDS011;27787;44.594;11.046;2023-04-01T06:13:07;31.98;;;14.73;;
42124;SDS011;27787;44.594;11.046;2023-04-01T06:19:33;25.52;;;15.10;;
42124;SDS011;27787;44.594;11.046;2023-04-01T06:22:25;24.48;;;12.48;;
42124;SDS011;27787;44.594;11.046;2023-04-01T06:46:59;25.73;;;13.48;;
42124;SDS011;27787;44.594;11.046;2023-04-01T06:50:24;24.08;;;13.43;;
42124;SDS011;27787;44.594;11.046;2023-04-01T06:57:20;26.33;;;10.55;;
42124;SDS011;27787;44.594;11.046;2023-04-01T07:03:44;22.50;;;12.50;;
42124;SDS011;27787;44.594;11.046;2023-04-01T07:09:40;23.45;;;14.10;;
42124;SDS011;27787;44.594;11.046;2023-04-01T07:12:46;25.05;;;14.43;;
42124;SDS011;27787;44.594;11.046;2023-04-01T07:16:12;25.17;;;14.90;;
42124;SDS011;27787;44.594;11.046;2023-04-01T07:19:16;25.50;;;14.63;;
42124;SDS011;27787;44.594;11.046;2023-04-01T07:28:54;25.13;;;12.93;;
42124;SDS011;27787;44.594;11.046;2023-04-01T07:31:58;23.33;;;11.75;;
42124;SDS011;27787;44.594;11.046;2023-04-01T07:40:49;20.65;;;10.88;;
42124;SDS011;27787;44.594;11.046;2023-04-01T07:56:14;29.10;;;12.32;;
42124;SDS011;27787;44.594;11.046;2023-04-01T08:21:11;23.33;;;11.98;;
42124;SDS011;27787;44.594;11.046;2023-04-01T08:24:06;21.77;;;11.00;;
42124;SDS011;27787;44.594;11.046;2023-04-01T08:27:15;27.45;;;12.23;;
42124;SDS011;27787;44.594;11.046;2023-04-01T08:30:17;20.88;;;10.52;;
42124;SDS011;27787;44.594;11.046;2023-04-01T08:36:37;25.98;;;11.75;;
42124;SDS011;27787;44.594;11.046;2023-04-01T08:39:43;25.10;;;11.57;;
42124;SDS011;27787;44.594;11.046;2023-04-01T08:45:49;20.75;;;10.75;;
42124;SDS011;27787;44.594;11.046;2023-04-01T08:48:49;20.77;;;11.45;;
42124;SDS011;27787;44.594;11.046;2023-04-01T08:58:43;19.63;;;10.02;;
42124;SDS011;27787;44.594;11.046;2023-04-01T09:05:31;17.35;;;9.00;;
42124;SDS011;27787;44.594;11.046;2023-04-01T09:08:49;20.92;;;9.30;;
42124;SDS011;27787;44.594;11.046;2023-04-01T09:20:42;20.40;;;10.40;;
42124;SDS011;27787;44.594;11.046;2023-04-01T09:35:47;20.67;;;9.68;;
42124;SDS011;27787;44.594;11.046;2023-04-01T09:54:47;16.63;;;8.50;;
42124;SDS011;27787;44.594;11.046;2023-04-01T10:13:24;18.27;;;8.18;;
42124;SDS011;27787;44.594;11.046;2023-04-01T10:25:26;10.77;;;6.55;;
42124;SDS011;27787;44.594;11.046;2023-04-01T11:22:21;10.13;;;4.05;;
42124;SDS011;27787;44.594;11.046;2023-04-01T11:25:25;5.95;;;3.22;;
42124;SDS011;27787;44.594;11.046;2023-04-01T11:32:43;6.47;;;3.38;;
42124;SDS011;27787;44.594;11.046;2023-04-01T11:35:42;7.40;;;3.80;;
42124;SDS011;27787;44.594;11.046;2023-04-01T11:45:15;4.93;;;2.67;;
42124;SDS011;27787;44.594;11.046;2023-04-01T11:54:23;4.90;;;2.67;;
42124;SDS011;27787;44.594;11.046;2023-04-01T12:13:42;4.85;;;2.40;;
42124;SDS011;27787;44.594;11.046;2023-04-01T12:23:16;4.22;;;2.22;;
42124;SDS011;27787;44.594;11.046;2023-04-01T12:26:30;7.75;;;2.40;;
42124;SDS011;27787;44.594;11.046;2023-04-01T12:32:41;4.10;;;2.40;;
42124;SDS011;27787;44.594;11.046;2023-04-01T12:41:44;6.25;;;1.85;;
42124;SDS011;27787;44.594;11.046;2023-04-01T13:04:02;4.22;;;2.42;;
42124;SDS011;27787;44.594;11.046;2023-04-01T13:17:06;4.82;;;2.60;;
42124;SDS011;27787;44.594;11.046;2023-04-01T13:20:11;5.15;;;2.60;;
42124;SDS011;27787;44.594;11.046;2023-04-01T13:45:54;1.23;;;1.00;;
42124;SDS011;27787;44.594;11.046;2023-04-01T14:14:48;0.75;;;0.50;;
42124;SDS011;27787;44.594;11.046;2023-04-01T14:20:49;0.77;;;0.32;;
42124;SDS011;27787;44.594;11.046;2023-04-01T14:23:42;0.52;;;0.38;;
42124;SDS011;27787;44.594;11.046;2023-04-01T14:26:40;0.20;;;0.20;;
42124;SDS011;27787;44.594;11.046;2023-04-01T14:35:43;0.55;;;0.20;;
42124;SDS011;27787;44.594;11.046;2023-04-01T14:48:28;0.10;;;0.10;;
42124;SDS011;27787;44.594;11.046;2023-04-01T14:51:16;0.25;;;0.25;;
42124;SDS011;27787;44.594;11.046;2023-04-01T14:57:04;0.20;;;0.20;;
42124;SDS011;27787;44.594;11.046;2023-04-01T15:00:12;0.20;;;0.20;;
42124;SDS011;27787;44.594;11.046;2023-04-01T15:03:01;0.55;;;0.22;;
42124;SDS011;27787;44.594;11.046;2023-04-01T15:08:53;0.52;;;0.30;;
42124;SDS011;27787;44.594;11.046;2023-04-01T15:12:16;0.20;;;0.20;;
42124;SDS011;27787;44.594;11.046;2023-04-01T15:15:14;0.10;;;0.10;;
42124;SDS011;27787;44.594;11.046;2023-04-01T15:27:30;0.30;;;0.20;;
42124;SDS011;27787;44.594;11.046;2023-04-01T15:30:28;0.22;;;0.20;;
42124;SDS011;27787;44.594;11.046;2023-04-01T15:36:27;0.20;;;0.20;;
42124;SDS011;27787;44.594;11.046;2023-04-01T15:39:14;0.20;;;0.10;;
42124;SDS011;27787;44.594;11.046;2023-04-01T15:45:23;0.80;;;0.47;;
42124;SDS011;27787;44.594;11.046;2023-04-01T15:57:32;0.63;;;0.30;;
42124;SDS011;27787;44.594;11.046;2023-04-01T16:00:23;0.20;;;0.20;;
42124;SDS011;27787;44.594;11.046;2023-04-01T16:12:48;1.27;;;0.80;;
42124;SDS011;27787;44.594;11.046;2023-04-01T16:21:44;0.30;;;0.30;;
42124;SDS011;27787;44.594;11.046;2023-04-01T16:31:14;0.43;;;0.43;;
42124;SDS011;27787;44.594;11.046;2023-04-01T16:34:16;1.95;;;0.60;;
42124;SDS011;27787;44.594;11.046;2023-04-01T16:45:54;1.85;;;0.82;;
42124;SDS011;27787;44.594;11.046;2023-04-01T16:57:57;6.20;;;2.22;;
42124;SDS011;27787;44.594;11.046;2023-04-01T17:00:48;6.72;;;2.30;;
42124;SDS011;27787;44.594;11.046;2023-04-01T17:03:44;7.65;;;2.67;;
42124;SDS011;27787;44.594;11.046;2023-04-01T17:06:38;8.07;;;2.22;;
42124;SDS011;27787;44.594;11.046;2023-04-01T17:18:58;5.13;;;2.40;;
42124;SDS011;27787;44.594;11.046;2023-04-01T17:21:46;11.05;;;3.78;;
42124;SDS011;27787;44.594;11.046;2023-04-01T17:30:33;12.18;;;3.50;;
42124;SDS011;27787;44.594;11.046;2023-04-01T17:36:44;5.93;;;1.60;;
42124;SDS011;27787;44.594;11.046;2023-04-01T17:40:25;5.50;;;1.88;;
42124;SDS011;27787;44.594;11.046;2023-04-01T17:46:40;7.13;;;2.53;;
42124;SDS011;27787;44.594;11.046;2023-04-01T17:52:48;8.75;;;1.75;;
42124;SDS011;27787;44.594;11.046;2023-04-01T17:55:42;6.43;;;2.08;;
42124;SDS011;27787;44.594;11.046;2023-04-01T18:07:59;3.53;;;1.70;;
42124;SDS011;27787;44.594;11.046;2023-04-01T18:14:13;3.45;;;1.52;;
42124;SDS011;27787;44.594;11.046;2023-04-01T18:17:24;3.40;;;1.33;;
42124;SDS011;27787;44.594;11.046;2023-04-01T18:26:23;3.38;;;1.02;;
42124;SDS011;27787;44.594;11.046;2023-04-01T18:32:24;5.32;;;1.90;;
42124;SDS011;27787;44.594;11.046;2023-04-01T18:35:17;6.15;;;1.98;;
42124;SDS011;27787;44.594;11.046;2023-04-01T18:38:26;4.90;;;1.23;;
42124;SDS011;27787;44.594;11.046;2023-04-01T18:44:25;3.67;;;1.40;;
42124;SDS011;27787;44.594;11.046;2023-04-01T18:49:58;3.35;;;1.75;;
42124;SDS011;27787;44.594;11.046;2023-04-01T18:52:56;4.82;;;1.65;;
42124;SDS011;27787;44.594;11.046;2023-04-01T18:55:52;4.00;;;1.88;;
42124;SDS011;27787;44.594;11.046;2023-04-01T18:58:52;2.92;;;1.60;;
42124;SDS011;27787;44.594;11.046;2023-04-01T19:05:11;4.68;;;1.88;;
42124;SDS011;27787;44.594;11.046;2023-04-01T19:08:12;5.22;;;1.50;;
42124;SDS011;27787;44.594;11.046;2023-04-01T19:14:27;5.00;;;1.55;;
42124;SDS011;27787;44.594;11.046;2023-04-01T19:20:20;5.57;;;1.92;;
42124;SDS011;27787;44.594;11.046;2023-04-01T19:26:01;6.55;;;1.80;;
42124;SDS011;27787;44.594;11.046;2023-04-01T19:28:52;6.25;;;1.67;;
42124;SDS011;27787;44.594;11.046;2023-04-01T19:34:57;4.72;;;1.75;;
42124;SDS011;27787;44.594;11.046;2023-04-01T19:50:27;5.80;;;1.42;;
42124;SDS011;27787;44.594;11.046;2023-04-01T19:53:34;2.88;;;1.00;;
42124;SDS011;27787;44.594;11.046;2023-04-01T19:56:45;4.85;;;1.50;;
42124;SDS011;27787;44.594;11.046;2023-04-01T19:59:57;4.20;;;1.17;;
42124;SDS011;27787;44.594;11.046;2023-04-01T20:02:58;11.32;;;1.88;;
42124;SDS011;27787;44.594;11.046;2023-04-01T20:11:44;6.45;;;1.65;;
42124;SDS011;27787;44.594;11.046;2023-04-01T20:14:49;8.43;;;1.50;;
42124;SDS011;27787;44.594;11.046;2023-04-01T20:20:21;5.75;;;1.67;;
42124;SDS011;27787;44.594;11.046;2023-04-01T20:23:32;5.75;;;1.80;;
42124;SDS011;27787;44.594;11.046;2023-04-01T20:26:33;8.60;;;1.75;;
42124;SDS011;27787;44.594;11.046;2023-04-01T20:38:21;7.38;;;2.50;;
42124;SDS011;27787;44.594;11.046;2023-04-01T20:41:40;6.25;;;1.98;;
42124;SDS011;27787;44.594;11.046;2023-04-01T21:00:19;7.68;;;2.85;;
42124;SDS011;27787;44.594;11.046;2023-04-01T21:03:15;8.20;;;1.52;;
42124;SDS011;27787;44.594;11.046;2023-04-01T21:12:30;6.82;;;1.60;;
42124;SDS011;27787;44.594;11.046;2023-04-01T21:15:33;6.28;;;1.83;;
42124;SDS011;27787;44.594;11.046;2023-04-01T21:22:02;6.78;;;1.80;;
42124;SDS011;27787;44.594;11.046;2023-04-01T21:43:12;7.72;;;1.95;;
42124;SDS011;27787;44.594;11.046;2023-04-01T21:55:23;4.75;;;1.60;;
42124;SDS011;27787;44.594;11.046;2023-04-01T22:07:34;12.68;;;2.42;;
42124;SDS011;27787;44.594;11.046;2023-04-01T22:11:11;9.85;;;1.95;;
42124;SDS011;27787;44.594;11.046;2023-04-01T22:13:39;5.07;;;1.50;;
42124;SDS011;27787;44.594;11.046;2023-04-01T22:16:40;5.32;;;1.70;;
42124;SDS011;27787;44.594;11.046;2023-04-01T22:29:06;5.63;;;1.45;;
42124;SDS011;27787;44.594;11.046;2023-04-01T22:32:05;5.22;;;1.60;;
42124;SDS011;27787;44.594;11.046;2023-04-01T22:53:30;4.65;;;1.50;;
42124;SDS011;27787;44.594;11.046;2023-04-01T22:56:50;3.78;;;1.60;;
42124;SDS011;27787;44.594;11.046;2023-04-01T22:59:57;7.22;;;1.73;;
42124;SDS011;27787;44.594;11.046;2023-04-01T23:02:59;8.25;;;2.03;;
42124;SDS011;27787;44.594;11.046;2023-04-01T23:08:47;6.43;;;1.63;;
42124;SDS011;27787;44.594;11.046;2023-04-01T23:24:10;9.40;;;1.90;;
42124;SDS011;27787;44.594;11.046;2023-04-01T23:27:09;4.57;;;1.90;;
42124;SDS011;27787;44.594;11.046;2023-04-01T23:30:01;5.43;;;1.45;;
42124;SDS011;27787;44.594;11.046;2023-04-01T23:32:45;11.20;;;2.38;;
42124;SDS011;27787;44.594;11.046;2023-04-01T23:35:29;6.53;;;1.50;;
42124;SDS011;27787;44.594;11.046;2023-04-01T23:38:13;8.73;;;1.85;;
42124;SDS011;27787;44.594;11.046;2023-04-01T23:40:59;6.82;;;1.40;;
42124;SDS011;27787;44.594;11.046;2023-04-01T23:43:44;5.95;;;1.52;;
42124;SDS011;27787;44.594;11.046;2023-04-01T23:46:29;7.78;;;1.67;;
42124;SDS011;27787;44.594;11.046;2023-04-01T23:49:28;7.68;;;1.67;;
42124;SDS011;27787;44.594;11.046;2023-04-01T23:52:28;5.30;;;1.20;;
42124;SDS011;27787;44.594;11.046;2023-04-01T23:55:21;8.13;;;1.77;;
